• Join FlightAware (Why Join?)
  • Login
  • US Flag 
12:53PM EDT


 

Airport Tracker/Info


-or-


 

Live Flight TrackerFlight Track Log ✈ ELJ309 ✈ 05-May-2013 ✈ KTPA - KCHS

Flight Track Log - Related Links

Times and Time Zones

All times are in EDT time to prevent confusion due to time zone crossing. See the ELJ309 flight status page for this flight to view local times or setup timezone preferences in your user account.

Time Position Orientation Groundspeed Altitude Reporting Facility
EDT Latitude Longitude Course Direction KTS MPH feet Rate Location/Type
02:58PM 27.9833 -82.5333 356° North 167 192 700  Level Tampa TRACON
03:02PM 28.2288 -82.5667 North  Level FlightAware Approximate
03:02PM 28.2372 -82.5533 North 263 303 11,400  Level Jacksonville Center
03:03PM 28.3247 -82.5742 348° North 290 334 13,900 2,460 Climbing Jacksonville Center
03:04PM 28.4125 -82.5833 355° North 312 359 16,400 2,460 Climbing Jacksonville Center
03:05PM 28.5086 -82.5878 358° North 323 372 18,900 2,280 Climbing Jacksonville Center
03:06PM 28.6067 -82.5853 North 335 386 21,000 1,980 Climbing Jacksonville Center
03:07PM 28.7047 -82.5919 357° North 346 398 23,000 1,920 Climbing Jacksonville Center
03:08PM 28.8050 -82.6083 352° North 356 410 24,900 1,920 Climbing Jacksonville Center
03:09PM 28.9050 -82.6222 353° North 356 410 26,900 1,740 Climbing Jacksonville Center
03:10PM 29.0075 -82.6339 354° North 361 415 28,500 1,500 Climbing Jacksonville Center
03:11PM 29.1139 -82.6503 352° North 373 429 29,900 720 Climbing Jacksonville Center
03:12PM 29.2244 -82.6642 354° North 379 436 30,000  Climbing Jacksonville Center
03:13PM 29.3478 -82.6806 353° North 408 470 30,000  Level Jacksonville Center
03:14PM 29.4689 -82.6897 356° North 433 498 30,000  Level Jacksonville Center
03:15PM 29.5858 -82.6944 358° North 447 514 30,000 300 Level Jacksonville Center
03:16PM 29.7069 -82.6942 360° North 441 507 30,600 480 Climbing Jacksonville Center
03:17PM 29.8239 -82.6939 360° North 434 499 31,000 180 Climbing Jacksonville Center
03:18PM 29.9447 -82.6936 360° North 429 494 31,000  Level Jacksonville Center
03:19PM 30.0783 -82.6861 North 429 494 31,000  Level Jacksonville Center
03:20PM 30.1994 -82.6858 360° North 434 499 31,000  Level Jacksonville Center
03:21PM 30.3122 -82.6856 360° North 441 507 31,000  Level Jacksonville Center
03:22PM 30.4356 -82.6853 360° North 441 507 31,000  Level Jacksonville Center
03:23PM 30.5586 -82.6611 10° North 441 507 31,000  Level Jacksonville Center
03:24PM 30.6775 -82.6050 22° Northeast 434 499 31,000  Level Jacksonville Center
03:25PM 30.7983 -82.5467 23° Northeast 451 519 31,000 -420 Level Jacksonville Center
03:26PM 30.9194 -82.4881 23° Northeast 457 526 30,200 -1,200 Descending Jacksonville Center
03:27PM 31.0444 -82.4247 23° Northeast 467 537 28,700 -1,560 Descending Jacksonville Center
03:28PM 31.1675 -82.3656 22° Northeast 473 544 27,100 -1,560 Descending Jacksonville Center
03:29PM 31.2925 -82.3042 23° Northeast 473 544 25,600 -1,560 Descending Jacksonville Center
03:30PM 31.4217 -82.2425 22° Northeast 464 534 24,000 -1,320 Descending Jacksonville Center
03:31PM 31.5403 -82.1881 21° North 459 528 23,000 -540 Descending Jacksonville Center
03:32PM 31.6422 -82.1336 24° Northeast 453 521 23,000  Level Jacksonville Center
03:33PM 31.7672 -82.0714 23° Northeast 448 516 23,000  Level Jacksonville Center
03:34PM 31.8794 -82.0094 25° Northeast 443 510 23,000  Level Jacksonville Center
03:35PM 31.9603 -81.9228 42° Northeast 438 504 23,000  Level Jacksonville Center
03:36PM 32.0197 -81.7753 65° Northeast 443 510 23,000 -180 Level Jacksonville Center
03:37PM 32.0478 -81.6475 75° East 443 510 22,700 -1,020 Descending Jacksonville Center
03:38PM 32.0836 -81.4875 75° East 448 516 21,000 -1,500 Descending Jacksonville Center
03:39PM 32.1133 -81.3594 75° East 454 522 19,700 -1,500 Descending Jacksonville Center
03:40PM 32.1450 -81.2192 75° East 449 517 18,000 -1,680 Descending Jacksonville Center
03:41PM 32.2081 -81.1028 57° Northeast 418 481 16,400 -1,620 Descending Jacksonville Center
03:42PM 32.2775 -80.9956 53° Northeast 409 471 14,800 -1,680 Descending Jacksonville Center
03:43PM 32.3508 -80.8786 53° Northeast 409 471 13,100 -1,740 Descending Jacksonville Center
03:44PM 32.4181 -80.7686 54° Northeast 409 471 11,400 -1,620 Descending Jacksonville Center
03:45PM 32.4831 -80.6711 52° Northeast 396 456 9,900 -1,320 Descending Jacksonville Center
03:46PM 32.5339 -80.5861 55° Northeast 344 396 8,800 -1,320 Descending Jacksonville Center
03:47PM 32.5722 -80.5161 57° Northeast 293 337 7,300 -1,620 Descending Jacksonville Center
03:48PM 32.6161 -80.4164 62° Northeast 293 337 5,600 -1,500 Descending Jacksonville Center
03:49PM 32.6500 -80.3364 63° Northeast 286 329 4,300 -1,500 Descending Jacksonville Center
03:50PM 32.6861 -80.2639 59° Northeast 273 314 2,700 -1,440 Descending Jacksonville Center
03:51PM 32.7203 -80.2011 57° Northeast 248 285 1,500 -600 Descending Jacksonville Center
03:52PM 32.7506 -80.1483 56° Northeast 215 247 1,500 -300 Level Jacksonville Center
03:53PM 32.7981 -80.1197 27° Northeast 190 219 1,000 -300 Descending Jacksonville Center
03:54PM 32.8347 -80.0842 39° Northeast 177 204 1,000  Level Jacksonville Center
03:56PM 32.8833 -80.0333 23° Northeast  Level FlightAware Approximate
04:03PM 32.8986 -80.0405 23° Northeast  Level Estimated
04:04PM 32.8986 -80.0405 23° Northeast  Level Estimated